Tikaboo Peak, Nevada Weather observations

Data are for 10 minute period ending at time listed.
 Day   Time   Solar   Ave.   Ave.  Ave.  Vector  Max.   Baro.   Total    
  of    of     Rad.   Air    Rel.  Wind   Wind   Wind  Press.  Precip.   
Year   Day            Temp.  Hum.  Speed  Dir.   Gust                    
2017   (PST)  Kw/m2    F      %     mph   deg.    mph    mb.     in.     
-------------------------------------------------------------------------
 178   17:50   0.16   77.6     8   11.5    31    19.1   762.2    0.00 
 178   18:00   0.13   77.4     8   11.2    30    19.6   762.3    0.00 
 178   18:10   0.10   76.8     8   10.2    29    15.8   762.3    0.00 
 178   18:20   0.08   76.2     8   11.8    31    17.9   762.3    0.00 
 178   18:30   0.06   76.0     8   10.8    31    21.0   762.3    0.00 
 178   18:40   0.04   75.5     8   11.2    20    20.5   762.2    0.00 
 178   18:50   0.03   75.1     9   10.4    28    19.6   762.2    0.00 
 178   19:00   0.02   74.1     9    8.8    36    14.0   762.3    0.00 
 178   19:10   0.01   73.7     9   10.1    18    16.5   762.3    0.00 
 178   19:20   0.00   73.1     9   10.3    16    21.7   762.3    0.00 
 178   19:30   0.00   72.4    10   10.5    10    18.2   762.2    0.00 
 178   19:40   0.00   71.9    10   13.2   350    19.2   762.2    0.00 
 178   19:50   0.00   71.5    10   13.4   350    20.8   762.2    0.00 
 178   20:00   0.00   71.4    10   15.2     4    27.1   762.3    0.00 
 178   20:10   0.00   71.4    10   15.0   358    26.7   762.4    0.00 
 178   20:20   0.00   71.3    10   13.4    18    21.0   762.4    0.00 
 178   20:30   0.00   71.0    10   12.3    11    23.3   762.5    0.00 
 178   20:40   0.00   70.9    10   11.9     6    21.1   762.6    0.00 
 178   20:50   0.00   70.8    10   11.6     7    18.3   762.7    0.00 
 178   21:00   0.00   70.6    10   11.6     2    18.3   762.8    0.00 
 178   21:10   0.00   70.4    10   10.8    15    16.2   762.7    0.00 
 178   21:20   0.00   70.4    10   12.5    16    17.5   762.7    0.00 
 178   21:30   0.00   70.3    10   11.4     9    16.7   762.7    0.00 
 178   21:40   0.00   70.1    10   14.5    24    20.7   762.6    0.00 
 178   21:50   0.00   70.1    10   14.1    25    22.1   762.6    0.00 
 178   22:00   0.00   70.0    10   18.2    29    25.0   762.5    0.00 
 178   22:10   0.00   69.9    10   16.7    42    23.2   762.5    0.00 
 178   22:20   0.00   69.6    10   16.7    46    21.8   762.3    0.00 
 178   22:30   0.00   69.4    10   15.2    42    20.8   762.4    0.00 
 178   22:40   0.00   69.2    10   13.3    42    21.0   762.5    0.00 
 178   22:50   0.00   69.1    10   13.9    43    23.0   762.5    0.00 
 178   23:00   0.00   69.0    10   14.7    28    20.2   762.5    0.00 
 178   23:10   0.00   68.7    10   14.3    28    18.9   762.4    0.00 
 178   23:20   0.00   68.5    10   14.7    25    18.3   762.3    0.00 
 178   23:30   0.00   68.3    10   13.8    25    18.5   762.3    0.00 
 178   23:40   0.00   68.1    10   11.2    24    15.2   762.2    0.00 
 178   23:50   0.00   67.9    10   10.7    21    14.0   762.2    0.00 
 179    0:00   0.00   67.9    10   11.0    27    14.1   762.2    0.00 
 179    0:10   0.00   67.7    10   11.2    36    14.5   762.1    0.00 
 179    0:20   0.00   67.7    10   10.0    39    14.8   762.0    0.00 
 179    0:30   0.00   67.6    10    9.5    33    12.9   762.0    0.00 
 179    0:40   0.00   67.5    10   10.2    27    13.5   762.0    0.00 
 179    0:50   0.00   67.6    10    8.8    21    11.0   761.9    0.00 
 179    1:00   0.00   67.7    10   12.6    24    19.9   761.8    0.00 
 179    1:10   0.00   67.9    10   12.4    32    17.6   761.7    0.00 
 179    1:20   0.00   67.5    10   10.4    27    14.2   761.7    0.00 
 179    1:30   0.00   67.3    10   11.1     9    13.0   761.7    0.00 
 179    1:40   0.00   66.9    10   11.2    36    13.1   761.7    0.00 
 179    1:50   0.00   66.4    11   11.1    44    14.7   761.7    0.00 
 179    2:00   0.00   66.3    11   12.3    59    16.5   761.7    0.00 
 179    2:10   0.00   66.7    10   16.8    45    18.8   761.5    0.00 
 179    2:20   0.00   66.9    10   15.9    48    17.8   761.5    0.00 
 179    2:30   0.00   66.8    10   14.8    48    17.8   761.5    0.00 
 179    2:40   0.00   66.6    10   14.7    65    17.0   761.5    0.00 
 179    2:50   0.00   66.5    10   12.4    71    15.6   761.5    0.00 
 179    3:00   0.00   66.1    10    8.3    75    14.8   761.5    0.00 
 179    3:10   0.00   65.2    10    5.8    77    12.6   761.5    0.00 
 179    3:20   0.00   65.0    11    9.0    74    14.6   761.4    0.00 
 179    3:30   0.00   65.2    11   12.0    70    15.3   761.5    0.00 
 179    3:40   0.00   65.5    11   12.0    66    16.7   761.6    0.00 
 179    3:50   0.00   65.0    11   12.4    67    16.5   761.6    0.00 
 179    4:00   0.00   65.0    11   14.0    70    18.3   761.6    0.00 
 179    4:10   0.00   64.8    11   13.5    67    17.1   761.5    0.00 
 179    4:20   0.00   64.3    11   14.1    70    17.0   761.5    0.00 
 179    4:30   0.01   64.5    11   14.2    64    16.0   761.6    0.00 
 179    4:40   0.04   65.1    11   14.5    57    16.3   761.6    0.00 
 179    4:50   0.08   65.8    11   15.5    48    16.8   761.6    0.00 
 179    5:00   0.11   66.2    11   15.1    49    17.5   761.7    0.00 
 179    5:10   0.15   66.5    11   13.7    49    15.3   761.7    0.00 
 179    5:20   0.18   67.1    11   14.0    46    16.1   761.7    0.00 
 179    5:30   0.22   67.7    11   13.6    43    15.8   761.7    0.00 
 179    5:40   0.26   67.9    11   10.1    51    14.2   761.8    0.00 
 179    5:50   0.30   69.3    10    9.9    42    11.9   761.8    0.00 
 179    6:00   0.34   72.5    10    6.6    46     8.9   762.0    0.00 
 179    6:10   0.38   73.1    10    3.3    75     5.0   762.0    0.00 
 179    6:20   0.42   74.0    10    3.2   103     5.6   762.0    0.00 
 179    6:30   0.46   73.6     9    3.7   118     6.7   762.0    0.00 
 179    6:40   0.49   74.7     9    2.4    76     4.7   762.0    0.00 
 179    6:50   0.53   74.2     9    1.0    42     3.1   762.0    0.00 
 179    7:00   0.57   76.2     9    1.0    60     2.6   762.1    0.00 
 179    7:10   0.61   76.0     9    1.5   335     3.4   762.1    0.00 
 179    7:20   0.65   74.8     9    2.1     3     5.0   762.1    0.00 
 179    7:30   0.68   76.3     9    1.4   360     5.0   762.2    0.00 
 179    7:40   0.72   72.8    10    4.8   321     7.4   762.2    0.00 
 179    7:50   0.75   72.0    10    4.7   318     6.6   762.3    0.00 
 179    8:00   0.78   72.1    10    4.6   326     6.4   762.4    0.00 
 179    8:10   0.81   75.2    10    3.3   347     7.5   762.4    0.00 
 179    8:20   0.85   75.5     9    3.8   343     8.4   762.3    0.00 
 179    8:30   0.88   75.2     9    4.9   335     7.5   762.3    0.00 
 179    8:40   0.90   75.2     9    4.4   334     8.8   762.3    0.00 
 179    8:50   0.93   76.2     9    3.6   354     7.2   762.4    0.00 
 179    9:00   0.96   77.8     9    3.2    10     7.4   762.5    0.00 
 179    9:10   0.98   78.7     9    3.6     9    10.0   762.6    0.00 
 179    9:20   1.01   78.2     9    4.5   355    10.7   762.6    0.00 
 179    9:30   1.03   76.9     9    6.4   350    10.4   762.5    0.00 
 179    9:40   1.05   77.7     9    5.0   360     8.8   762.7    0.00 
 179    9:50   1.06   78.7     9    5.4     1    12.7   762.8    0.00 
 179   10:00   1.08   79.0     9    5.7     1    10.8   762.8    0.00 
 179   10:10   1.10   79.4     9    4.6     2     8.6   762.9    0.00 
 179   10:20   1.11   78.2     9    5.6    17    13.7   762.9    0.00 
 179   10:30   1.12   78.3     9    4.3    21     9.3   762.9    0.00 
 179   10:40   1.13   79.1     9    5.5    13    12.2   762.9    0.00 
 179   10:50   1.14   78.7     9    3.6    13     9.6   762.9    0.00 
 179   11:00   1.15   80.1     8    2.4   134     6.8   762.9    0.00 
 179   11:10   1.15   81.0     8    3.5    94     8.6   762.9    0.00 
 179   11:20   1.15   80.7     8    3.5    39    14.1   762.9    0.00 
 179   11:30   1.15   80.4     8    4.9    37    10.7   762.8    0.00 
 179   11:40   1.15   79.5     8    9.7   358    21.5   762.8    0.00 
 179   11:50   1.15   79.9     8    4.6    30    12.3   762.7    0.00 
 179   12:00   1.14   81.5     7    8.0    68    19.5   762.6    0.00 
 179   12:10   1.14   80.1     8   10.8    55    25.8   762.6    0.00 
 179   12:20   1.13   81.0     8    7.6    78    21.0   762.7    0.00 
 179   12:30   1.11   81.1     8   13.5    59    27.2   762.5    0.00 
 179   12:40   1.10   81.3     8    9.9    52    22.4   762.7    0.00 
 179   12:50   1.09   81.2     8    7.8    61    26.2   762.5    0.00 
 179   13:00   1.07   80.8     7    7.7    62    22.6   762.4    0.00 
 179   13:10   1.06   81.1     7   10.8    66    26.5   762.5    0.00 
 179   13:20   1.04   81.2     7   10.8    62    20.2   762.4    0.00 
 179   13:30   1.01   81.5     7   14.6    66    25.2   762.4    0.00 
 179   13:40   0.99   82.1     7    8.9    60    25.1   762.4    0.00 
 179   13:50   0.96   82.0     8    6.1    66    14.8   762.3    0.00 
 179   14:00   0.95   82.3     7    7.5    76    23.0   762.2    0.00 
 179   14:10   0.92   81.7     7    7.1    69    20.5   762.3    0.00 
 179   14:20   0.89   82.7     7    4.4    80    15.0   762.4    0.00 
 179   14:30   0.86   83.9     7    6.2    78    17.8   762.4    0.00 
 179   14:40   0.79   83.4     7    2.9   132    14.0   762.3    0.00 
 179   14:50   0.68   82.5     7    5.5    76    21.9   762.2    0.00 
 179   15:00   0.76   82.7     7    6.8    90    20.1   762.2    0.00 
 179   15:10   0.73   83.0     7    6.8    58    20.5   762.2    0.00 
 179   15:20   0.69   82.0     8   10.8    32    20.7   762.1    0.00 
 179   15:30   0.66   81.2     8    5.6    57    18.0   762.1    0.00 
 179   15:40   0.62   81.9     8    9.2    65    21.5   761.9    0.00 
 179   15:50   0.59   81.6     8    7.6    66    24.3   761.9    0.00 
 179   16:00   0.55   81.2     8   14.2    53    24.9   761.7    0.00 
 179   16:10   0.51   80.9     8    3.9    99    15.0   761.7    0.00 
 179   16:20   0.48   80.3     7    5.4    83    17.7   761.8    0.00 
 179   16:30   0.44   80.4     7    3.5    88    12.9   761.9    0.00 
 179   16:40   0.40   79.6     7    2.5   152    10.7   761.8    0.00 
 179   16:50   0.36   79.1     6    2.3   173    10.1   761.7    0.00 
 179   17:00   0.33   78.6     6    2.3   175    10.7   761.6    0.00 
 179   17:10   0.29   77.1     6    1.9   208    10.9   761.7    0.00 
 179   17:20   0.26   76.4     6    2.3   143    11.5   761.7    0.00 
 179   17:30   0.22   75.5     6    2.1   173    16.6   761.6    0.00 
 179   17:40   0.19   74.4     6    1.8   193    12.2   761.6    0.00 

Return to Tikaboo Peak graphs page.


Western Regional Climate Center,wrcc@dri.edu